Gar Creek, Indiana
Current Conditions -  °F | °C
As of 1:54 AM on Thursday 23 Oct 2014 (Local Time) from KFWA Reporting Station
Light Fog Light Fog  
Wind Chill: 35°   Ceiling: Unl
Heat Index: 35°   Visibility: 10mi
Dew Point: 33°   Wind: 0mph
Humidity: 92%   Direction: NA
Pressure: 30.29"   Gusts: NA
Location:  41.0925°N, 84.9712°W
Report Text: KFWA 230554Z 00000KT 10SM BCFG CLR 02/01 A3029 RMK AO2 SLP261 T00170006 10050 20011 58004
Loading
Personal Weather Stations






























Interactive Weather Map
Tropical Storm Tracking
New forecast layout! Learn more

10-Day Weather Forecast

Advertisements
Track Severe Weather on mobile